Time;durP1;ratioP1;P1;durP2;ratioP2;P2;SDS_P1;SDS_P2;PMS_P1;PMS_P2;Temp;Humidity;BMP_temperature;BMP_pressure;BME280_temperature;BME280_humidity;BME280_pressure;Samples;Min_cycle;Max_cycle;Signal;HPM_P1;HPM_P2
2022/08/28 00:00:32;;;;;;;10.68;4.45;;;;;;;17.66;60.43;102111.72;4918611;28;20508;-66
2022/08/28 00:02:58;;;;;;;9.23;4.55;;;;;;;17.71;60.50;102113.50;4906539;28;20035;-66
2022/08/28 00:05:27;;;;;;;11.40;4.40;;;;;;;17.64;60.55;102118.72;4921555;28;20043;-64
2022/08/28 00:07:52;;;;;;;13.77;4.85;;;;;;;17.65;60.82;102120.50;4920536;28;20750;-66
2022/08/28 00:10:19;;;;;;;9.82;4.28;;;;;;;17.70;60.58;102111.72;4938652;28;20031;-67
2022/08/28 00:12:46;;;;;;;8.07;4.40;;;;;;;17.67;60.83;102114.38;4912897;28;20234;-68
2022/08/28 00:15:17;;;;;;;11.75;4.55;;;;;;;17.70;60.51;102114.38;4924398;28;20093;-67
2022/08/28 00:17:43;;;;;;;9.77;4.15;;;;;;;17.67;60.66;102114.38;4941983;28;20377;-66
2022/08/28 00:20:11;;;;;;;12.32;4.20;;;;;;;17.57;60.99;102116.91;4917861;28;20516;-67
2022/08/28 00:22:37;;;;;;;12.10;4.35;;;;;;;17.66;61.09;102122.28;4924091;28;20302;-67
2022/08/28 00:25:05;;;;;;;8.20;3.88;;;;;;;17.69;60.90;102114.34;4916728;28;20485;-67
2022/08/28 00:30:14;;;;;;;10.98;4.75;;;;;;;17.59;61.27;102125.72;4924741;28;20037;-67
2022/08/28 00:32:44;;;;;;;10.13;4.22;;;;;;;17.60;61.05;102122.22;4916576;28;20546;-67
2022/08/28 00:35:11;;;;;;;12.75;4.70;;;;;;;17.64;60.81;102124.00;4954592;28;20793;-67
2022/08/28 00:37:38;;;;;;;10.27;4.22;;;;;;;17.62;61.04;102129.28;4952712;28;20135;-67
2022/08/28 00:40:05;;;;;;;7.85;4.25;;;;;;;17.60;61.20;102130.13;4922344;28;20089;-67
2022/08/28 00:42:33;;;;;;;9.32;4.35;;;;;;;17.57;61.57;102130.97;4894535;28;20151;-67
2022/08/28 00:44:58;;;;;;;9.35;4.15;;;;;;;17.58;61.69;102131.84;4918562;28;20027;-66
2022/08/28 00:47:25;;;;;;;9.82;3.97;;;;;;;17.55;61.75;102127.47;4920025;28;20042;-65
2022/08/28 00:49:53;;;;;;;14.15;4.03;;;;;;;17.57;61.75;102138.00;4926760;28;20398;-68
2022/08/28 00:52:21;;;;;;;11.43;3.90;;;;;;;17.53;61.67;102133.59;4926259;28;20113;-66
2022/08/28 00:55:09;;;;;;;11.52;4.45;;;;;;;17.48;61.71;102132.69;4915510;28;20042;-66
2022/08/28 00:57:39;;;;;;;7.88;4.10;;;;;;;17.49;61.89;102131.84;4923368;28;20525;-66
2022/08/28 01:00:18;;;;;;;13.73;4.18;;;;;;;17.47;61.95;102129.19;4918030;28;20509;-66
2022/08/28 01:02:44;;;;;;;11.20;3.92;;;;;;;17.35;62.18;102130.00;4924144;28;20699;-66
2022/08/28 01:05:12;;;;;;;9.40;3.60;;;;;;;17.44;62.13;102137.09;4917012;28;20460;-66
2022/08/28 01:07:38;;;;;;;8.43;3.45;;;;;;;17.47;61.87;102125.66;4924103;28;20425;-66
2022/08/28 01:10:07;;;;;;;8.52;3.97;;;;;;;17.48;61.97;102141.50;4916687;28;20030;-67
2022/08/28 01:12:33;;;;;;;7.53;3.60;;;;;;;17.45;61.98;102134.44;4919710;28;20046;-67
2022/08/28 01:15:04;;;;;;;10.90;3.97;;;;;;;17.42;62.23;102126.53;4927044;28;20369;-66
2022/08/28 01:17:33;;;;;;;11.50;3.90;;;;;;;17.41;62.22;102130.03;4913713;28;20042;-66
2022/08/28 01:20:05;;;;;;;7.53;3.80;;;;;;;17.29;62.23;102121.16;4929597;28;20081;-66
2022/08/28 01:22:58;;;;;;;10.07;4.00;;;;;;;17.36;62.52;102128.25;4919257;28;20042;-67
2022/08/28 01:25:30;;;;;;;10.38;3.83;;;;;;;17.31;62.40;102120.31;4909231;28;20156;-67
2022/08/28 01:27:57;;;;;;;10.98;4.22;;;;;;;17.32;62.47;102124.69;4925555;28;20031;-67
2022/08/28 01:30:23;;;;;;;7.57;3.80;;;;;;;17.28;62.41;102116.78;4911203;28;20109;-67
2022/08/28 01:32:52;;;;;;;8.55;3.97;;;;;;;17.16;62.81;102122.84;4920072;28;20062;-66
2022/08/28 01:35:27;;;;;;;8.25;3.67;;;;;;;17.12;62.81;102125.47;4907670;28;20035;-66
2022/08/28 01:37:54;;;;;;;9.55;4.00;;;;;;;17.10;63.19;102117.53;4921529;28;20058;-68
2022/08/28 01:40:25;;;;;;;8.23;3.78;;;;;;;17.01;63.32;102117.50;4919003;28;22499;-67
2022/08/28 01:42:50;;;;;;;7.80;3.80;;;;;;;17.02;63.55;102114.84;4919515;28;20126;-66
2022/08/28 01:45:18;;;;;;;8.52;3.47;;;;;;;16.99;63.65;102116.59;4928565;28;20444;-66
2022/08/28 01:47:45;;;;;;;8.73;3.50;;;;;;;17.02;63.60;102117.47;4934822;28;20037;-66
2022/08/28 01:50:14;;;;;;;10.77;3.50;;;;;;;17.06;63.87;102120.16;4918461;28;20058;-65
2022/08/28 01:52:43;;;;;;;7.53;3.30;;;;;;;17.04;63.61;102118.38;4926974;28;20037;-66
2022/08/28 01:55:16;;;;;;;8.18;3.90;;;;;;;16.92;63.96;102122.69;4916271;28;20046;-66
2022/08/28 01:57:49;;;;;;;8.35;3.30;;;;;;;16.83;64.15;102120.84;4923088;28;20066;-66
2022/08/28 02:00:15;;;;;;;7.17;3.60;;;;;;;16.67;64.71;102132.16;4914518;28;20311;-66
2022/08/28 02:02:44;;;;;;;8.57;3.47;;;;;;;16.60;65.14;102127.69;4917922;28;20337;-66
2022/08/28 02:05:10;;;;;;;10.93;3.90;;;;;;;16.56;65.78;102131.16;4927149;28;20965;-66
2022/08/28 02:07:36;;;;;;;7.30;3.50;;;;;;;16.49;65.64;102124.94;4920430;28;20130;-66
2022/08/28 02:10:04;;;;;;;8.10;3.50;;;;;;;16.41;66.42;102129.25;4917412;28;20081;-66
2022/08/28 02:12:30;;;;;;;9.10;4.18;;;;;;;16.40;66.70;102131.88;4924497;28;20061;-67
2022/08/28 02:14:56;;;;;;;6.93;3.72;;;;;;;16.42;67.40;102138.03;4924845;28;20047;-66
2022/08/28 02:17:21;;;;;;;10.43;3.78;;;;;;;16.41;67.82;102136.25;4920232;28;20046;-68
2022/08/28 02:19:46;;;;;;;6.93;3.50;;;;;;;16.48;67.79;102140.72;4918857;28;20046;-67
2022/08/28 02:22:13;;;;;;;7.38;3.58;;;;;;;16.49;68.19;102137.22;4928536;28;20038;-68
2022/08/28 02:24:38;;;;;;;7.32;3.80;;;;;;;16.53;68.14;102144.25;4917458;28;20067;-67
2022/08/28 02:27:05;;;;;;;7.35;3.60;;;;;;;16.49;68.28;102143.38;4909021;28;20151;-66
2022/08/28 02:29:30;;;;;;;8.25;3.45;;;;;;;16.46;68.19;102138.09;4927523;28;20525;-66
2022/08/28 02:31:56;;;;;;;11.07;3.60;;;;;;;16.46;68.56;102143.34;4917574;28;20262;-68
2022/08/28 02:34:22;;;;;;;9.32;4.00;;;;;;;16.49;68.50;102135.47;4923448;28;20365;-66
2022/08/28 02:36:48;;;;;;;9.00;3.40;;;;;;;16.42;68.49;102138.03;4899610;28;20042;-68
2022/08/28 02:39:14;;;;;;;9.40;3.88;;;;;;;16.41;68.47;102144.16;4931100;28;20037;-66
2022/08/28 02:41:39;;;;;;;6.95;3.50;;;;;;;16.39;68.18;102138.00;4928499;28;20326;-66
2022/08/28 02:44:04;;;;;;;8.20;3.70;;;;;;;16.44;68.02;102136.31;4923614;28;20956;-68
2022/08/28 02:46:30;;;;;;;6.45;3.80;;;;;;;16.40;68.03;102140.66;4928045;28;20035;-67
2022/08/28 02:48:55;;;;;;;6.75;3.72;;;;;;;16.27;68.40;102138.78;4922220;28;20022;-67
2022/08/28 02:51:21;;;;;;;8.82;3.90;;;;;;;16.26;68.69;102141.38;4922549;28;20933;-67
2022/08/28 02:53:47;;;;;;;9.57;4.20;;;;;;;16.25;68.76;102151.03;4902907;28;20031;-67
2022/08/28 02:56:12;;;;;;;10.27;3.75;;;;;;;16.16;69.05;102143.91;4906069;28;20409;-68
2022/08/28 02:58:38;;;;;;;8.73;3.85;;;;;;;16.13;69.37;102140.38;4923893;28;20049;-66
2022/08/28 03:01:06;;;;;;;8.35;3.70;;;;;;;16.17;69.71;102145.69;4915080;28;20722;-66
2022/08/28 03:03:32;;;;;;;11.85;4.13;;;;;;;16.24;69.72;102150.13;4916065;28;20062;-67
2022/08/28 03:05:59;;;;;;;8.88;4.00;;;;;;;16.26;69.77;102146.66;4930461;28;20098;-67
2022/08/28 03:08:26;;;;;;;8.07;3.47;;;;;;;16.26;69.94;102158.06;4910251;28;20047;-66
2022/08/28 03:10:52;;;;;;;9.93;3.70;;;;;;;16.34;69.38;102159.03;4923212;28;20031;-68
2022/08/28 03:13:18;;;;;;;10.10;3.72;;;;;;;16.38;69.52;102160.81;4923165;28;20193;-68
2022/08/28 03:15:45;;;;;;;7.90;3.65;;;;;;;16.41;69.25;102155.56;4930842;28;20027;-67
2022/08/28 03:18:12;;;;;;;8.88;3.83;;;;;;;16.41;69.46;102150.31;4911709;28;20066;-66
2022/08/28 03:20:38;;;;;;;8.00;3.40;;;;;;;16.52;69.01;102148.69;4931670;28;20058;-67
2022/08/28 03:26:06;;;;;;;8.23;3.45;;;;;;;16.61;68.53;102146.16;4917870;28;20489;-67
2022/08/28 03:28:38;;;;;;;6.13;3.50;;;;;;;16.59;67.88;102152.22;4939910;28;20501;-66
2022/08/28 03:31:04;;;;;;;9.88;3.50;;;;;;;16.65;68.12;102143.56;4940145;28;20438;-66
2022/08/28 03:33:30;;;;;;;10.40;3.50;;;;;;;16.74;68.19;102154.16;4925355;28;20027;-66
2022/08/28 03:35:56;;;;;;;7.20;3.55;;;;;;;16.72;67.79;102151.50;4926071;28;20525;-67
2022/08/28 03:38:23;;;;;;;8.98;3.30;;;;;;;16.74;67.65;102151.53;4921932;28;20049;-66
2022/08/28 03:40:52;;;;;;;9.05;3.45;;;;;;;16.79;67.59;102157.69;4915210;28;20027;-66
2022/08/28 03:43:20;;;;;;;5.82;3.33;;;;;;;16.71;67.88;102155.00;4922275;28;20112;-67
2022/08/28 03:46:01;;;;;;;7.57;3.53;;;;;;;16.70;68.22;102153.25;4930985;28;20018;-66
2022/08/28 03:48:30;;;;;;;9.07;3.33;;;;;;;16.66;68.47;102163.72;4931705;28;20034;-68
2022/08/28 03:50:56;;;;;;;7.78;3.47;;;;;;;16.61;68.48;102151.41;4916262;28;20724;-67
2022/08/28 03:53:26;;;;;;;8.73;3.58;;;;;;;16.66;68.39;102158.47;4924421;28;20039;-66
2022/08/28 03:55:52;;;;;;;6.03;3.38;;;;;;;16.67;68.18;102160.22;4916181;28;20034;-66
2022/08/28 03:58:19;;;;;;;7.80;3.60;;;;;;;16.66;68.30;102155.81;4922447;28;20038;-66
2022/08/28 04:00:45;;;;;;;7.82;3.35;;;;;;;16.66;67.94;102169.00;4900932;28;20549;-66
2022/08/28 04:03:11;;;;;;;8.27;3.70;;;;;;;16.53;68.64;102166.22;4927291;28;20047;-66
2022/08/28 04:05:39;;;;;;;8.25;3.40;;;;;;;16.70;68.55;102166.44;4930793;28;20496;-66
2022/08/28 04:08:05;;;;;;;7.80;3.33;;;;;;;16.72;68.34;102167.28;4923886;28;20050;-66
2022/08/28 04:10:31;;;;;;;6.38;3.28;;;;;;;16.70;68.93;102173.44;4922872;28;20043;-66
2022/08/28 04:12:58;;;;;;;9.48;3.47;;;;;;;16.79;68.92;102166.47;4915706;28;20102;-67
2022/08/28 04:15:24;;;;;;;7.07;3.28;;;;;;;16.92;68.66;102173.63;4926082;28;20023;-66
2022/08/28 04:17:49;;;;;;;8.23;3.30;;;;;;;16.97;68.57;102174.53;4924632;28;20114;-66
2022/08/28 04:20:15;;;;;;;7.85;3.38;;;;;;;17.06;68.31;102168.47;4925510;28;20051;-66
2022/08/28 04:23:02;;;;;;;7.78;3.25;;;;;;;17.11;68.01;102176.41;4925306;28;20039;-67
2022/08/28 04:25:28;;;;;;;6.07;3.10;;;;;;;17.19;67.66;102172.06;4923918;28;20146;-66
2022/08/28 04:27:54;;;;;;;6.72;3.15;;;;;;;17.27;67.50;102171.22;4927879;28;20516;-66
2022/08/28 04:30:19;;;;;;;6.75;3.30;;;;;;;17.28;67.33;102177.38;4932761;28;20034;-66
2022/08/28 04:32:45;;;;;;;4.90;2.88;;;;;;;17.20;67.38;102185.22;4911590;28;20023;-67
2022/08/28 04:35:11;;;;;;;6.78;2.72;;;;;;;17.42;66.91;102179.25;4959610;28;20120;-67
2022/08/28 04:37:37;;;;;;;6.32;2.55;;;;;;;17.50;66.29;102181.94;4916749;28;20453;-66
2022/08/28 04:40:09;;;;;;;6.45;2.60;;;;;;;17.60;65.98;102186.41;4918042;28;20024;-66
2022/08/28 04:42:37;;;;;;;7.40;2.72;;;;;;;17.69;65.46;102186.44;4920880;28;20051;-66
2022/08/28 04:45:03;;;;;;;7.55;3.00;;;;;;;17.76;65.36;102180.31;4918140;28;20460;-67
2022/08/28 04:47:29;;;;;;;6.53;2.88;;;;;;;17.79;64.89;102182.13;4924703;28;20037;-67
2022/08/28 04:49:55;;;;;;;8.32;2.95;;;;;;;17.89;64.80;102183.91;4947004;28;20043;-67
2022/08/28 04:52:21;;;;;;;7.80;2.83;;;;;;;17.77;64.79;102190.00;4920296;28;20825;-67
2022/08/28 04:54:48;;;;;;;10.75;2.70;;;;;;;17.95;64.69;102188.31;4942874;28;21269;-67
2022/08/28 04:57:14;;;;;;;8.65;3.20;;;;;;;17.97;64.36;102184.81;4924986;28;20527;-68
2022/08/28 04:59:40;;;;;;;8.07;2.67;;;;;;;18.03;64.10;102187.50;4931567;28;20463;-66
2022/08/28 05:02:06;;;;;;;6.03;2.60;;;;;;;18.04;64.01;102197.19;4924521;28;20105;-66
2022/08/28 05:04:32;;;;;;;9.70;2.85;;;;;;;17.95;64.47;102194.47;4928740;28;20026;-67
2022/08/28 05:06:57;;;;;;;6.65;2.92;;;;;;;17.99;64.22;102196.25;4922821;28;20113;-66
2022/08/28 05:09:23;;;;;;;7.25;2.88;;;;;;;18.02;64.01;102206.84;4922359;28;20513;-66
2022/08/28 05:11:52;;;;;;;7.55;2.63;;;;;;;18.03;63.66;102200.69;4926648;28;20165;-66
2022/08/28 05:14:20;;;;;;;4.72;2.40;;;;;;;18.16;63.38;102199.84;4919226;28;20510;-66
2022/08/28 05:16:51;;;;;;;5.63;2.40;;;;;;;18.18;63.09;102199.84;4922279;28;20198;-66
2022/08/28 05:19:19;;;;;;;8.68;2.70;;;;;;;18.25;63.20;102201.63;4924831;28;20047;-67
2022/08/28 05:21:45;;;;;;;6.53;2.55;;;;;;;18.24;63.09;102211.31;4924345;28;20053;-66
2022/08/28 05:24:12;;;;;;;6.22;2.60;;;;;;;18.22;63.01;102210.44;4925274;28;20767;-67
2022/08/28 05:26:39;;;;;;;6.90;2.28;;;;;;;18.24;62.96;102206.03;4904486;28;20030;-66
2022/08/28 05:29:05;;;;;;;7.45;2.60;;;;;;;18.40;62.28;102204.31;4925326;28;20057;-67
2022/08/28 05:31:32;;;;;;;7.55;2.45;;;;;;;18.55;62.12;102212.28;4916999;28;20073;-67
2022/08/28 05:33:59;;;;;;;7.18;2.20;;;;;;;18.61;62.10;102204.38;4925927;28;20811;-66
2022/08/28 05:36:27;;;;;;;9.05;2.53;;;;;;;18.62;62.05;102213.19;4916604;28;20368;-66
2022/08/28 05:38:56;;;;;;;7.65;2.50;;;;;;;18.71;61.83;102218.50;4917228;28;20567;-66
2022/08/28 05:41:24;;;;;;;4.75;2.30;;;;;;;18.82;61.52;102211.47;4930639;28;20035;-66
2022/08/28 05:43:52;;;;;;;6.50;1.95;;;;;;;18.93;61.26;102212.34;4920669;28;20141;-69
2022/08/28 05:46:19;;;;;;;8.77;2.20;;;;;;;18.88;61.23;102213.22;4928272;28;20085;-65
2022/08/28 05:48:45;;;;;;;5.82;2.35;;;;;;;19.01;60.85;102218.50;4921716;28;20093;-67
2022/08/28 05:51:13;;;;;;;6.55;2.05;;;;;;;18.87;61.16;102214.97;4924530;28;20904;-66
2022/08/28 05:53:41;;;;;;;8.30;2.28;;;;;;;19.03;60.76;102211.44;4923615;28;20390;-68
2022/08/28 05:56:08;;;;;;;6.82;2.40;;;;;;;18.84;60.97;102216.75;4916891;28;20805;-67
2022/08/28 05:58:34;;;;;;;6.60;2.20;;;;;;;18.78;61.25;102217.63;4931519;28;20035;-67
2022/08/28 06:01:20;;;;;;;8.18;2.03;;;;;;;18.94;60.54;102213.22;4925164;28;20323;-67
2022/08/28 06:03:54;;;;;;;8.05;2.30;;;;;;;18.80;61.01;102220.25;4926672;28;20034;-67
2022/08/28 06:06:23;;;;;;;6.00;2.35;;;;;;;18.97;60.76;102224.66;4923272;28;20027;-66
2022/08/28 06:08:50;;;;;;;6.53;2.20;;;;;;;18.80;61.07;102231.69;4914879;28;20497;-67
2022/08/28 06:11:20;;;;;;;4.47;1.90;;;;;;;18.93;60.76;102217.63;4920591;28;20062;-68
2022/08/28 06:13:46;;;;;;;5.60;2.03;;;;;;;19.07;60.23;102224.69;4928474;28;20050;-67
2022/08/28 06:16:12;;;;;;;7.63;2.22;;;;;;;18.95;60.51;102215.88;4916899;28;20947;-66
2022/08/28 06:18:37;;;;;;;8.10;2.45;;;;;;;18.76;60.55;102221.13;4930154;28;20158;-66
2022/08/28 06:21:04;;;;;;;9.85;2.38;;;;;;;18.93;60.07;102217.63;4906705;28;20687;-66
2022/08/28 06:23:29;;;;;;;3.58;2.00;;;;;;;19.07;59.78;102220.28;4938086;28;20022;-67
2022/08/28 06:25:55;;;;;;;6.78;2.00;;;;;;;18.99;60.06;102222.03;4909893;28;20047;-67
2022/08/28 06:28:26;;;;;;;6.18;2.20;;;;;;;19.22;59.36;102219.38;4924759;28;20019;-68
2022/08/28 06:31:00;;;;;;;4.57;1.65;;;;;;;19.42;58.53;102229.03;4924087;28;20043;-69
2022/08/28 06:33:25;;;;;;;6.72;2.13;;;;;;;20.36;56.40;102227.03;4920224;28;20303;-67
2022/08/28 06:35:55;;;;;;;7.85;1.92;;;;;;;21.93;51.81;102231.84;4917678;28;20050;-67
2022/08/28 06:38:25;;;;;;;9.75;1.90;;;;;;;22.75;49.01;102225.47;4934882;28;20158;-67
2022/08/28 06:41:02;;;;;;;4.63;1.70;;;;;;;23.51;46.82;102218.84;4914948;28;20085;-66
2022/08/28 06:43:28;;;;;;;6.30;2.13;;;;;;;24.93;44.51;102228.25;4922460;28;21751;-66
2022/08/28 06:45:56;;;;;;;5.07;2.08;;;;;;;24.77;43.79;102233.03;4930485;28;20279;-67
2022/08/28 06:48:26;;;;;;;7.75;1.83;;;;;;;24.90;43.86;102231.84;4927564;28;20034;-68
2022/08/28 06:50:54;;;;;;;5.82;1.80;;;;;;;25.23;42.68;102224.78;4919582;28;20573;-67
2022/08/28 06:53:29;;;;;;;7.78;1.88;;;;;;;26.32;39.75;102227.97;4930124;28;20039;-67
2022/08/28 06:56:07;;;;;;;7.45;1.70;;;;;;;25.13;42.38;102230.41;4918210;28;20085;-68
2022/08/28 06:58:39;;;;;;;5.68;1.80;;;;;;;24.86;43.12;102237.28;4933140;28;20027;-67
2022/08/28 07:01:15;;;;;;;6.55;1.90;;;;;;;24.90;43.01;102233.63;4908740;28;20780;-68
2022/08/28 07:03:41;;;;;;;4.93;1.70;;;;;;;25.01;43.14;102228.91;4922550;28;20034;-67
2022/08/28 07:06:12;;;;;;;4.85;1.85;;;;;;;25.78;40.94;102234.88;4921304;28;20034;-66
2022/08/28 07:08:43;;;;;;;4.55;1.70;;;;;;;25.41;41.99;102229.66;4946709;28;20041;-66
2022/08/28 07:11:21;;;;;;;5.93;2.00;;;;;;;24.87;42.35;102239.91;4949218;28;20240;-68
2022/08/28 07:13:47;;;;;;;4.53;1.65;;;;;;;24.18;44.20;102237.03;4923289;28;20038;-67
2022/08/28 07:16:16;;;;;;;5.97;1.90;;;;;;;25.78;41.10;102237.56;4914982;28;20050;-66
2022/08/28 07:18:44;;;;;;;7.65;1.63;;;;;;;27.01;38.41;102228.44;4921374;28;20113;-66
2022/08/28 07:21:10;;;;;;;7.53;2.00;;;;;;;26.70;38.58;102240.16;4927074;28;20085;-67
2022/08/28 07:23:37;;;;;;;6.70;1.70;;;;;;;27.57;37.80;102239.00;4924690;28;20141;-67
2022/08/28 07:26:04;;;;;;;6.07;1.85;;;;;;;27.99;36.06;102230.34;4924918;28;20045;-67
2022/08/28 07:28:31;;;;;;;5.68;1.73;;;;;;;27.62;36.41;102244.22;4924775;28;20034;-68
2022/08/28 07:30:59;;;;;;;6.35;1.80;;;;;;;25.75;40.05;102260.78;4921425;28;20031;-68
2022/08/28 07:33:26;;;;;;;6.03;1.70;;;;;;;24.45;43.74;102260.44;4925582;28;20520;-68
2022/08/28 07:35:52;;;;;;;8.65;1.98;;;;;;;25.85;40.72;102259.63;4935001;28;20038;-67
2022/08/28 07:38:17;;;;;;;6.35;1.60;;;;;;;26.06;40.70;102266.16;4923363;28;20651;-67
2022/08/28 07:40:44;;;;;;;6.40;1.60;;;;;;;27.03;38.65;102261.38;4918588;28;20052;-67
2022/08/28 07:46:05;;;;;;;9.10;1.70;;;;;;;26.40;39.40;102266.06;4927686;28;20572;-68
2022/08/28 07:48:32;;;;;;;4.03;1.42;;;;;;;26.62;38.75;102261.78;4921217;28;20173;-67
2022/08/28 07:50:58;;;;;;;6.13;1.50;;;;;;;27.22;37.35;102264.31;4914851;28;20071;-67
2022/08/28 07:53:23;;;;;;;5.05;1.75;;;;;;;27.53;36.82;102268.63;4962628;28;20027;-66
2022/08/28 07:55:50;;;;;;;6.95;1.70;;;;;;;27.00;38.08;102272.19;4924862;28;20027;-67
2022/08/28 07:58:17;;;;;;;6.25;1.52;;;;;;;26.56;39.05;102275.38;4925715;28;20589;-68
2022/08/28 08:00:45;;;;;;;5.15;1.63;;;;;;;26.37;39.24;102274.16;4913046;28;20046;-69
2022/08/28 08:03:11;;;;;;;6.28;1.80;;;;;;;26.36;38.70;102272.41;4921979;28;22758;-68
2022/08/28 08:05:36;;;;;;;4.43;1.70;;;;;;;26.14;39.15;102275.72;4924133;28;20022;-67
2022/08/28 08:08:02;;;;;;;6.10;2.00;;;;;;;25.07;42.34;102275.94;4929976;28;20031;-67
2022/08/28 08:10:28;;;;;;;6.25;1.77;;;;;;;25.26;41.71;102278.09;4921099;28;20069;-67
2022/08/28 08:13:01;;;;;;;5.15;1.77;;;;;;;24.51;43.48;102286.97;4913105;28;20043;-67
2022/08/28 08:15:38;;;;;;;6.10;1.80;;;;;;;24.22;42.94;102279.59;4921841;28;20398;-69
2022/08/28 08:18:12;;;;;;;7.05;2.00;;;;;;;24.12;42.85;102279.78;4925610;28;20173;-68
2022/08/28 08:24:00;;;;;;;6.25;1.85;;;;;;;24.01;42.70;102288.00;4924803;28;20046;-67
2022/08/28 08:26:28;;;;;;;5.07;2.10;;;;;;;23.45;44.39;102286.34;4915918;28;20043;-67
2022/08/28 08:28:59;;;;;;;8.07;1.65;;;;;;;23.05;45.22;102286.16;4915270;28;20031;-66
2022/08/28 08:31:35;;;;;;;4.53;1.83;;;;;;;23.19;45.11;102293.91;4936374;28;20162;-71
2022/08/28 08:34:03;;;;;;;5.85;1.80;;;;;;;23.03;45.33;102293.28;4911849;28;20042;-66
2022/08/28 08:36:32;;;;;;;5.10;1.83;;;;;;;22.96;46.10;102295.16;4870404;28;20401;-67
2022/08/28 08:38:58;;;;;;;9.27;1.90;;;;;;;23.30;45.54;102281.28;4913962;28;20158;-68
2022/08/28 08:41:32;;;;;;;8.25;1.80;;;;;;;23.18;44.53;102287.69;4922360;28;20389;-67
2022/08/28 08:44:11;;;;;;;;;;;;;;;23.21;45.16;102292.97;4911083;28;20085;-67
2022/08/28 08:46:49;;;;;;;5.18;1.80;;;;;;;23.56;43.11;102283.53;4923539;28;20102;-67
2022/08/28 08:49:19;;;;;;;3.22;1.67;;;;;;;23.60;43.64;102285.25;4926986;28;20138;-68
2022/08/28 08:51:53;;;;;;;4.05;1.60;;;;;;;23.84;43.17;102282.13;4930887;28;20027;-67
2022/08/28 08:54:20;;;;;;;5.20;1.65;;;;;;;23.93;43.19;102289.94;4928827;28;20102;-67
2022/08/28 08:56:47;;;;;;;3.65;1.60;;;;;;;23.65;42.92;102280.72;4923712;28;20027;-68
2022/08/28 08:59:18;;;;;;;5.32;1.70;;;;;;;23.68;43.46;102292.19;4921900;28;20064;-67
2022/08/28 09:02:09;;;;;;;7.70;2.00;;;;;;;23.75;43.14;102295.59;4955459;28;20043;-68
2022/08/28 09:04:56;;;;;;;6.55;1.70;;;;;;;24.48;42.58;102295.03;4919192;28;20042;-67
2022/08/28 09:07:29;;;;;;;6.72;1.80;;;;;;;24.57;41.15;102286.84;4923083;28;20448;-67
2022/08/28 09:09:56;;;;;;;5.45;1.70;;;;;;;25.10;40.73;102291.84;4953352;28;20042;-67
2022/08/28 09:12:24;;;;;;;6.90;1.40;;;;;;;24.59;41.20;102294.78;4923367;28;20378;-67
2022/08/28 09:15:16;;;;;;;3.55;1.55;;;;;;;24.92;40.72;102283.38;4941087;28;20318;-66
2022/08/28 09:17:47;;;;;;;5.55;1.70;;;;;;;24.68;40.18;102281.25;4924106;28;21312;-67
2022/08/28 09:20:16;;;;;;;5.25;1.83;;;;;;;24.76;40.26;102278.41;4927832;28;20377;-67
2022/08/28 09:22:45;;;;;;;4.88;1.60;;;;;;;24.55;41.06;102277.09;4911409;28;20513;-66
2022/08/28 09:25:31;;;;;;;4.97;1.60;;;;;;;25.07;40.03;102279.44;4919268;28;20606;-67
2022/08/28 09:28:08;;;;;;;4.18;1.70;;;;;;;25.60;39.56;102277.25;4929342;28;20039;-67
2022/08/28 09:30:35;;;;;;;5.15;1.42;;;;;;;25.44;38.92;102279.41;4919891;28;20066;-67
2022/08/28 09:33:00;;;;;;;5.65;1.70;;;;;;;25.90;39.34;102278.19;4914305;28;20512;-67
2022/08/28 09:35:28;;;;;;;7.00;1.98;;;;;;;25.49;40.51;102289.97;4921273;28;20493;-67
2022/08/28 09:37:55;;;;;;;5.85;1.52;;;;;;;25.38;38.08;102277.75;4937418;28;20263;-67
2022/08/28 09:40:24;;;;;;;6.82;1.60;;;;;;;25.73;38.41;102274.22;4910355;28;20870;-67
2022/08/28 09:46:01;;;;;;;3.92;1.50;;;;;;;25.82;39.92;102271.28;4921045;28;20070;-68
2022/08/28 09:48:37;;;;;;;4.63;1.40;;;;;;;26.00;37.62;102275.22;4919079;28;20752;-68
2022/08/28 09:51:18;;;;;;;3.53;1.50;;;;;;;25.80;38.20;102280.22;4914833;28;20248;-68
2022/08/28 09:53:50;;;;;;;6.25;1.60;;;;;;;24.97;39.95;102272.59;4930174;28;20413;-67
2022/08/28 09:56:17;;;;;;;4.68;1.50;;;;;;;25.32;40.89;102282.38;4893534;28;20410;-67
2022/08/28 09:58:58;;;;;;;7.15;1.95;;;;;;;24.77;40.04;102275.69;4925790;28;20262;-65
2022/08/28 10:01:52;;;;;;;4.40;1.60;;;;;;;25.11;39.16;102267.81;4928877;28;20074;-67
2022/08/28 10:04:44;;;;;;;7.47;1.58;;;;;;;25.53;39.06;102268.50;4923422;28;20110;-67
2022/08/28 10:07:21;;;;;;;5.00;1.48;;;;;;;25.82;38.62;102262.38;4940526;28;20070;-67
2022/08/28 10:10:15;;;;;;;5.00;1.60;;;;;;;25.56;38.58;102255.03;4920833;28;20042;-66
2022/08/28 10:12:58;;;;;;;5.10;1.48;;;;;;;24.84;40.59;102269.31;4921442;28;20039;-67
2022/08/28 10:15:56;;;;;;;4.07;1.80;;;;;;;24.48;41.04;102268.38;4924322;28;20109;-67
2022/08/28 10:18:36;;;;;;;5.38;1.80;;;;;;;24.92;40.64;102267.38;4896155;28;20043;-66
2022/08/28 10:21:32;;;;;;;5.88;1.80;;;;;;;25.25;41.80;102268.31;4929541;28;20427;-67
2022/08/28 10:24:22;;;;;;;4.57;1.80;;;;;;;25.41;39.56;102268.81;4913929;28;20038;-69
2022/08/28 10:27:22;;;;;;;4.20;1.73;;;;;;;25.63;39.51;102277.16;4875021;28;20047;-67
2022/08/28 10:30:06;;;;;;;6.50;1.70;;;;;;;25.56;38.87;102280.88;4954448;28;20047;-67
2022/08/28 10:33:07;;;;;;;4.18;1.70;;;;;;;26.06;37.64;102275.03;4924337;28;20297;-66
2022/08/28 10:35:58;;;;;;;5.28;1.60;;;;;;;26.20;38.25;102266.63;4920488;28;20458;-69
2022/08/28 10:38:38;;;;;;;3.80;1.70;;;;;;;26.61;39.32;102276.97;4922493;28;20592;-68
2022/08/28 10:41:23;;;;;;;5.35;1.63;;;;;;;26.78;37.66;102275.56;4911596;28;20038;-68
2022/08/28 10:43:52;;;;;;;3.55;1.60;;;;;;;26.05;37.55;102277.75;4923141;28;21083;-68
2022/08/28 10:46:24;;;;;;;5.22;1.55;;;;;;;26.06;38.82;102282.19;4925786;28;20030;-68
2022/08/28 10:49:02;;;;;;;5.63;1.80;;;;;;;25.48;39.40;102274.88;4912270;28;20481;-68
2022/08/28 10:51:34;;;;;;;5.22;1.67;;;;;;;25.57;39.26;102280.88;4923593;28;20043;-68
2022/08/28 10:54:21;;;;;;;4.40;1.50;;;;;;;25.88;37.76;102280.91;4914918;28;20039;-67
2022/08/28 10:57:01;;;;;;;4.45;1.42;;;;;;;26.04;37.30;102279.56;4917924;28;20034;-68
2022/08/28 10:59:32;;;;;;;4.87;1.80;;;;;;;25.78;37.86;102287.44;4925120;28;20070;-68
2022/08/28 11:01:59;;;;;;;5.15;1.50;;;;;;;25.57;38.16;102277.31;4936364;28;20035;-67
2022/08/28 11:04:27;;;;;;;5.38;1.52;;;;;;;25.46;40.03;102281.13;4917287;28;20137;-68
2022/08/28 11:07:01;;;;;;;4.07;1.65;;;;;;;26.28;37.46;102283.38;4919305;28;20395;-69
2022/08/28 11:09:29;;;;;;;4.72;1.58;;;;;;;26.33;37.53;102288.56;4932823;28;20039;-67
2022/08/28 11:12:02;;;;;;;4.95;1.45;;;;;;;26.48;37.24;102282.75;4941876;28;20490;-67
2022/08/28 11:14:45;;;;;;;4.65;1.30;;;;;;;27.22;36.21;102276.81;4911698;28;20043;-67
2022/08/28 11:17:20;;;;;;;4.43;1.60;;;;;;;26.88;36.91;102288.66;4920708;28;20409;-67
2022/08/28 11:20:04;;;;;;;3.95;1.50;;;;;;;25.99;36.72;102278.81;4909835;28;20042;-67
2022/08/28 11:22:51;;;;;;;6.43;1.48;;;;;;;26.13;37.11;102283.75;4940490;28;20030;-66
2022/08/28 11:25:44;;;;;;;5.03;1.52;;;;;;;26.15;38.00;102284.59;4915877;28;20459;-69
2022/08/28 11:28:46;;;;;;;4.72;1.63;;;;;;;26.19;37.48;102289.81;4925631;28;20728;-68
2022/08/28 11:31:15;;;;;;;4.93;1.55;;;;;;;26.01;36.83;102284.13;4912471;28;20565;-68
2022/08/28 11:33:54;;;;;;;3.55;1.30;;;;;;;25.73;36.70;102281.34;4927887;28;20141;-68
2022/08/28 11:36:20;;;;;;;5.97;1.52;;;;;;;25.64;36.08;102282.47;4918425;28;20495;-66
2022/08/28 11:38:54;;;;;;;3.58;1.50;;;;;;;25.59;37.10;102288.84;4916709;28;20050;-68
2022/08/28 11:41:25;;;;;;;5.63;1.55;;;;;;;25.10;38.56;102281.19;4919421;28;20053;-67
2022/08/28 11:44:13;;;;;;;6.18;1.60;;;;;;;25.57;37.97;102280.00;4890566;28;20046;-67
2022/08/28 11:46:46;;;;;;;3.75;1.55;;;;;;;25.70;37.91;102274.28;4898808;28;20858;-68
2022/08/28 11:49:30;;;;;;;4.10;1.30;;;;;;;25.39;36.99;102268.84;4933319;28;20469;-68
2022/08/28 11:52:17;;;;;;;3.08;1.48;;;;;;;25.91;36.62;102274.63;4920224;28;20039;-67
2022/08/28 11:54:55;;;;;;;4.22;1.58;;;;;;;25.54;37.84;102280.06;4915124;28;20790;-68